Terminal Aerodrome Forecast
Issued by NWS Green Bay, WI

Home | Current Version | Previous Version | Graphics & Text | Print | Product List | Glossary On
Versions: 1 2 3 4 5 6 7 8 9 10 11 12 13 14 15 16 17 18 19 20 21 22 23 24 25 26 27 28 29 30 31 32 33 34
000
FTUS43 KGRB 221500 AAC
TAFGRB
TAF AMD
KGRB 221501Z 2215/2312 VRB02KT P6SM SCT020
      TEMPO 2215/2216 5SM BR SCT003
     FM221600 12004KT P6SM SKC
     FM230000 15005KT P6SM SCT250
     FM230800 18004KT P6SM BKN250=

USA.gov is the U.S. government's official web portal to all federal, state and local government web resources and services.